METAR Data
IDs: Format: Raw Decoded Include TAF

Data at: 0026 UTC 26 Oct 2021

PAGL 252356Z AUTO 30004KT 10SM FEW034 M03/M06 A2937 RMK AO2 SLP941 T10281056 11028 21044 51008 PWINO FZRANO $
PAGL 252256Z AUTO 30003KT 10SM BKN040 M03/M06 A2937 RMK AO2 SLP940 T10331056 PWINO FZRANO $
PAGL 252156Z AUTO 30005KT 10SM CLR M03/M06 A2936 RMK AO2 SLP937 T10331061 PWINO FZRANO $
PAGL 252056Z AUTO 30004KT 10SM CLR M03/M07 A2935 RMK AO2 SLP933 T10331067 51004 PWINO FZRANO $
PAGL 251956Z AUTO 28004KT 10SM CLR M03/M06 A2934 RMK AO2 SLP931 T10281056 PWINO FZRANO $
PAGL 251856Z AUTO 00000KT 10SM CLR M04/M06 A2934 RMK AO2 SLP930 T10391061 PWINO FZRANO $
PAGL 251756Z AUTO 00000KT 10SM CLR M04/M06 A2933 RMK AO2 SLP928 T10441056 11022 21044 51004 PWINO FZRANO $
PAGL 251746Z AUTO 00000KT 10SM SCT028 M04/M06 A2933 RMK AO2 PWINO FZRANO $
PAGL 251656Z AUTO 31005KT 10SM BKN026 OVC030 M03/M06 A2933 RMK AO2 SLP928 T10331061 PWINO FZRANO $
PAGL 251556Z AUTO 35004KT 10SM SCT017 BKN024 M03/M06 A2932 RMK AO2 SLP925 T10331056 PWINO FZRANO $
PAGL 251456Z AUTO 31003KT 10SM OVC017 M03/M05 A2932 RMK AO2 SLP925 T10331050 52000 PWINO FZRANO $
PAGL 251404Z AUTO 30006KT 10SM BKN021 M03/M05 A2932 RMK AO2 PWINO FZRANO $
PAGL 251356Z AUTO 28006KT 10SM SCT021 M03/M05 A2932 RMK AO2 SLP925 T10331050 PWINO FZRANO $
PAGL 251256Z AUTO 27007KT 10SM CLR M03/M05 A2932 RMK AO2 SLP924 T10281050 PWINO FZRANO $
PAGL 251156Z AUTO 27009G15KT 230V300 10SM CLR M02/M04 A2932 RMK AO2 SLP924 T10221039 10000 21028 56004 PWINO FZRANO $
PAGL 251056Z AUTO 27008KT 10SM FEW023 BKN034 M02/M04 A2933 RMK AO2 SLP926 T10171039 PWINO FZRANO $
PAGL 250956Z AUTO 00000KT 9SM SCT017 OVC023 M02/M02 A2933 RMK AO2 SLP929 T10171022 PWINO FZRANO $
PAGL 250856Z AUTO 35003KT 10SM OVC019 M02/M03 A2933 RMK AO2 SLP926 T10221033 51004 PWINO FZRANO $
PAGL 250847Z AUTO 01003KT 10SM BKN019 OVC120 M03/M03 A2933 RMK AO2 PWINO FZRANO $
PAGL 250834Z AUTO 00000KT 10SM FEW008 SCT019 OVC120 M02/M03 A2933 RMK AO2 PWINO FZRANO $
PAGL 250826Z AUTO 35003KT 10SM SCT010 OVC120 M02/M03 A2933 RMK AO2 PWINO FZRANO $
PAGL 250815Z AUTO 01003KT 10SM SCT008 BKN013 OVC120 M03/M04 A2933 RMK AO2 PWINO FZRANO $
PAGL 250756Z AUTO 02003KT 10SM BKN012 OVC120 M02/M03 A2932 RMK AO2 SLP925 T10171033 400171028 PWINO FZRANO $
PAGL 250746Z AUTO 35004KT 10SM SCT014 OVC120 M01/M03 A2932 RMK AO2 PWINO FZRANO $
PAGL 250739Z AUTO 29004KT 10SM BKN014 OVC120 M01/M02 A2932 RMK AO2 PWINO FZRANO $
PAGL 250703Z AUTO 29005KT 10SM BKN016 OVC120 M01/M02 A2931 RMK AO2 PWINO FZRANO $
PAGL 250656Z AUTO 28005KT 10SM BKN014 OVC120 M01/M03 A2931 RMK AO2 SLP922 T10061028 PWINO FZRANO $
PAGL 250556Z AUTO 26004KT 10SM FEW090 M01/M02 A2932 RMK AO2 SLP923 T10111022 10017 21011 56007 PWINO FZRANO $
PAGL 250456Z AUTO 26005KT 10SM FEW014 BKN075 BKN085 M01/M02 A2932 RMK AO2 SLP924 T10061022 PWINO FZRANO $
PAGL 250425Z AUTO 25006KT 10SM SCT014 SCT080 00/M02 A2933 RMK AO2 PWINO FZRANO $
PAGL 250356Z AUTO 25006KT 10SM SCT018 BKN023 BKN095 00/M02 A2933 RMK AO2 SLP928 T00001022 PWINO FZRANO $
PAGL 250256Z AUTO 25005KT 10SM BKN017 BKN023 00/M02 A2934 RMK AO2 SLP930 T00001022 56009 PWINO FZRANO $
PAGL 250156Z AUTO 21003KT 7SM BKN015 OVC020 01/M02 A2934 RMK AO2 SLP931 T00061017 PWINO FZRANO $
PAGL 250056Z AUTO 23006KT 10SM BKN015 BKN021 OVC065 02/M02 A2935 RMK AO2 SLP934 T00171017 PWINO FZRANO $
PAGL 242356Z AUTO 21008KT 10SM BKN021 OVC026 02/M02 A2936 RMK AO2 SLP939 T00171022 10017 21017 58003 PWINO FZRANO $
PAGL 242326Z AUTO 22006KT 10SM BKN021 BKN075 01/M02 A2937 RMK AO2 PWINO FZRANO $
PAGL 242317Z AUTO 22006KT 10SM FEW012 SCT023 BKN075 01/M02 A2937 RMK AO2 PWINO FZRANO $
PAGL 242310Z AUTO 22006KT 10SM SCT012 BKN023 OVC075 01/M02 A2937 RMK AO2 PWINO FZRANO $
PAGL 242256Z AUTO 22007KT 7SM BKN014 OVC025 01/M01 A2937 RMK AO2 SLP941 T00111011 PWINO FZRANO $
PAGL 242243Z AUTO 21006KT 2 1/2SM HZ BKN014 OVC065 01/M02 A2937 RMK AO2 PWINO FZRANO $
PAGL 242156Z AUTO 23004KT 10SM FEW035 OVC049 01/M02 A2937 RMK AO2 SLP943 T00061017 PWINO FZRANO $
PAGL 242132Z AUTO 20004KT 10SM SCT028 SCT037 OVC045 01/M01 A2938 RMK AO2 PWINO FZRANO $
PAGL 242123Z AUTO 17004KT 10SM FEW023 BKN028 OVC045 01/M01 A2938 RMK AO2 PWINO FZRANO $
PAGL 242056Z AUTO 13006KT 10SM FEW023 OVC047 00/M01 A2937 RMK AO2 SLP942 T00001011 56001 PWINO FZRANO $
PAGL 241956Z AUTO 00000KT 10SM OVC049 M01/M02 A2937 RMK AO2 SLP942 T10111017 PWINO FZRANO $
PAGL 241856Z AUTO 00000KT 10SM OVC047 M02/M02 A2937 RMK AO2 SLP942 T10171017 PWINO FZRANO $
PAGL 241756Z AUTO 00000KT 10SM BKN047 M02/M02 A2938 RMK AO2 SLP943 T10171022 11011 21022 58006 PWINO FZRANO $
PAGL 241656Z AUTO 00000KT 10SM OVC034 M01/M02 A2939 RMK AO2 SLP947 T10111022 PWINO FZRANO $
PAGL 241556Z AUTO 23003KT 10SM OVC030 M02/M02 A2940 RMK AO2 SLP950 T10171022 PWINO FZRANO $
PAGL 241456Z AUTO 25003KT 10SM OVC030 M02/M02 A2939 RMK AO2 SLP949 T10171022 50000 PWINO FZRANO $
PAGL 241356Z AUTO 00000KT 10SM OVC032 M02/M03 A2940 RMK AO2 SLP951 T10171028 PWINO FZRANO $
PAGL 241256Z AUTO 03004KT 10SM FEW023 OVC030 M02/M03 A2939 RMK AO2 SLP949 T10221028 PWINO FZRANO $